createdAt,value
2023-05-16T00:01:52.272Z,59.18
2023-05-16T00:04:54.473Z,59.04
2023-05-16T00:07:55.969Z,59.08
2023-05-16T00:10:57.551Z,58.87
2023-05-16T00:13:59.085Z,59.18
2023-05-16T00:17:00.979Z,59.05
2023-05-16T00:20:10.985Z,59.27
2023-05-16T00:23:12.896Z,58.99
2023-05-16T00:26:14.417Z,59.47
2023-05-16T00:29:15.970Z,59.18
2023-05-16T00:32:18.615Z,59.20
2023-05-16T00:35:20.466Z,59.26
2023-05-16T00:38:25.009Z,59.11
2023-05-16T00:41:26.782Z,59.35
2023-05-16T00:44:28.672Z,59.48
2023-05-16T00:47:30.393Z,59.60
2023-05-16T00:50:34.250Z,59.20
2023-05-16T00:53:37.065Z,59.36
2023-05-16T00:56:38.669Z,59.22
2023-05-16T00:59:42.387Z,59.37
2023-05-16T01:02:44.428Z,58.87
2023-05-16T01:05:47.128Z,59.56
2023-05-16T01:08:48.719Z,59.22
2023-05-16T01:12:07.193Z,59.23
2023-05-16T01:15:13.103Z,59.30
2023-05-16T01:18:25.580Z,59.21
2023-05-16T01:21:43.495Z,59.47
2023-05-16T01:25:21.037Z,59.50
2023-05-16T01:28:22.869Z,59.29
2023-05-16T01:31:25.060Z,59.57
2023-05-16T01:34:26.818Z,59.29
2023-05-16T01:37:38.182Z,59.27
2023-05-16T01:41:06.442Z,59.41
2023-05-16T01:44:16.796Z,59.42
2023-05-16T01:47:21.325Z,59.29
2023-05-16T01:50:29.813Z,59.58
2023-05-16T01:53:38.926Z,59.51
2023-05-16T01:56:47.308Z,59.47
2023-05-16T01:59:48.924Z,59.64
2023-05-16T02:02:50.556Z,59.44
2023-05-16T02:05:52.281Z,59.60
2023-05-16T02:08:53.793Z,59.56
2023-05-16T02:11:55.341Z,59.60
2023-05-16T02:14:56.857Z,59.48
2023-05-16T02:17:58.741Z,59.54
2023-05-16T02:21:00.437Z,59.50
2023-05-16T02:24:02.007Z,59.62
2023-05-16T02:27:03.767Z,59.53
2023-05-16T02:30:06.426Z,59.70
2023-05-16T02:33:08.566Z,59.60
2023-05-16T02:36:11.022Z,59.55
2023-05-16T02:39:12.834Z,59.58
2023-05-16T02:42:14.351Z,59.68
2023-05-16T02:45:15.861Z,59.75
2023-05-16T02:48:17.336Z,59.67
2023-05-16T02:51:20.883Z,59.71
2023-05-16T02:54:22.414Z,59.84
2023-05-16T02:57:23.950Z,59.72
2023-05-16T03:00:25.568Z,59.42
2023-05-16T03:03:27.260Z,59.78
2023-05-16T03:06:30.220Z,59.70
2023-05-16T03:09:31.714Z,59.69
2023-05-16T03:12:33.570Z,59.72
2023-05-16T03:15:35.158Z,59.81
2023-05-16T03:18:37.425Z,59.99
2023-05-16T03:21:40.028Z,60.02
2023-05-16T03:24:41.670Z,59.88
2023-05-16T03:27:46.158Z,59.81
2023-05-16T03:30:47.983Z,59.91
2023-05-16T03:33:49.880Z,59.86
2023-05-16T03:36:51.686Z,59.90
2023-05-16T03:39:53.217Z,59.72
2023-05-16T03:42:54.678Z,59.88
2023-05-16T03:45:56.274Z,59.81
2023-05-16T03:48:57.822Z,59.94
2023-05-16T03:51:59.436Z,59.81
2023-05-16T03:55:02.375Z,59.88
2023-05-16T03:58:03.879Z,59.98
2023-05-16T04:01:05.506Z,59.79
2023-05-16T04:04:07.117Z,60.22
2023-05-16T04:07:08.904Z,59.99
2023-05-16T04:10:11.037Z,59.98
2023-05-16T04:13:12.572Z,60.04
2023-05-16T04:16:14.173Z,60.05
2023-05-16T04:19:15.732Z,59.72
2023-05-16T04:22:17.339Z,60.28
2023-05-16T04:25:18.862Z,60.15
2023-05-16T04:28:20.925Z,60.38
2023-05-16T04:31:23.075Z,60.15
2023-05-16T04:34:27.913Z,60.06
2023-05-16T04:37:29.422Z,59.91
2023-05-16T04:40:31.042Z,59.87
2023-05-16T04:43:33.346Z,60.11
2023-05-16T04:46:34.924Z,60.58
2023-05-16T04:49:36.865Z,60.09
2023-05-16T04:52:38.489Z,60.02
2023-05-16T04:55:39.993Z,60.30
2023-05-16T04:58:42.901Z,60.12
2023-05-16T05:01:44.670Z,60.25
2023-05-16T05:04:46.817Z,60.32
2023-05-16T05:07:48.464Z,60.40
2023-05-16T05:10:50.068Z,60.13
2023-05-16T05:13:53.130Z,60.23
2023-05-16T05:16:55.179Z,60.33
2023-05-16T05:19:56.695Z,60.48
2023-05-16T05:22:58.195Z,60.44
2023-05-16T05:25:59.724Z,60.18
2023-05-16T05:29:05.402Z,60.26
2023-05-16T05:32:08.462Z,60.35
2023-05-16T05:35:10.001Z,60.36
2023-05-16T05:38:11.495Z,60.36
2023-05-16T05:41:13.235Z,60.39
2023-05-16T05:44:14.711Z,60.24
2023-05-16T05:47:16.581Z,60.52
2023-05-16T05:50:18.313Z,60.44
2023-05-16T05:53:19.845Z,60.45
2023-05-16T05:56:21.847Z,60.43
2023-05-16T05:59:23.348Z,60.36
2023-05-16T06:02:25.027Z,60.57
2023-05-16T06:05:26.893Z,60.61
2023-05-16T06:08:28.621Z,60.68
2023-05-16T06:11:30.099Z,60.63
2023-05-16T06:14:31.600Z,60.70
2023-05-16T06:17:33.148Z,61.16
2023-05-16T06:20:34.627Z,60.68
2023-05-16T06:23:36.139Z,60.52
2023-05-16T06:26:37.728Z,60.81
2023-05-16T06:29:39.627Z,60.76
2023-05-16T06:32:41.483Z,60.51
2023-05-16T06:35:43.141Z,60.64
2023-05-16T06:38:45.241Z,60.82
2023-05-16T06:41:46.923Z,60.83
2023-05-16T06:44:51.221Z,60.45
2023-05-16T06:47:54.128Z,60.42
2023-05-16T06:50:57.640Z,60.73
2023-05-16T06:53:59.154Z,60.53
2023-05-16T06:57:00.727Z,60.75
2023-05-16T07:00:02.286Z,60.64
2023-05-16T07:03:04.707Z,60.46
2023-05-16T07:06:06.498Z,60.50
2023-05-16T07:09:08.369Z,60.44
2023-05-16T07:12:10.004Z,60.61
2023-05-16T07:15:11.578Z,60.43
2023-05-16T07:18:13.194Z,60.44
2023-05-16T07:21:14.935Z,60.50
2023-05-16T07:24:16.483Z,60.59
2023-05-16T07:27:18.133Z,60.30
2023-05-16T07:30:20.720Z,60.29
2023-05-16T07:33:22.235Z,60.24
2023-05-16T07:36:23.991Z,60.23
2023-05-16T07:39:25.542Z,60.18
2023-05-16T07:42:27.300Z,60.10
2023-05-16T07:45:29.241Z,60.16
2023-05-16T07:48:31.027Z,60.16
2023-05-16T07:51:32.657Z,60.14
2023-05-16T07:54:35.246Z,60.31
2023-05-16T07:57:36.932Z,60.41
2023-05-16T08:00:38.557Z,60.09
2023-05-16T08:03:40.187Z,59.98
2023-05-16T08:06:41.820Z,60.08
2023-05-16T08:09:43.394Z,60.20
2023-05-16T08:12:44.971Z,60.27
2023-05-16T08:15:46.802Z,59.95
2023-05-16T08:18:48.380Z,60.14
2023-05-16T08:21:49.996Z,59.96
2023-05-16T08:24:51.496Z,60.03
2023-05-16T08:27:53.006Z,59.97
2023-05-16T08:30:54.633Z,60.04
2023-05-16T08:33:56.200Z,60.15
2023-05-16T08:36:57.792Z,60.11
2023-05-16T08:39:59.293Z,60.06
2023-05-16T08:43:01.517Z,60.16
2023-05-16T08:46:03.151Z,60.23
2023-05-16T08:49:07.748Z,60.29
2023-05-16T08:52:10.782Z,60.23
2023-05-16T08:55:13.591Z,60.21
2023-05-16T08:58:16.399Z,60.16
2023-05-16T09:01:18.787Z,60.07
2023-05-16T09:04:20.771Z,60.06
2023-05-16T09:07:22.394Z,59.89
2023-05-16T09:10:23.912Z,59.89
2023-05-16T09:13:26.177Z,59.64
2023-05-16T09:16:27.788Z,59.12
2023-05-16T09:19:40.280Z,58.77
2023-05-16T09:22:51.982Z,58.57
2023-05-16T09:25:53.791Z,58.41
2023-05-16T09:28:56.041Z,58.24
2023-05-16T09:32:05.710Z,58.03
2023-05-16T09:35:14.728Z,57.60
2023-05-16T09:38:17.777Z,57.52
2023-05-16T09:41:22.033Z,57.43
2023-05-16T09:44:23.726Z,57.12
2023-05-16T09:47:28.159Z,56.59
2023-05-16T09:50:29.765Z,57.10
2023-05-16T09:53:33.177Z,57.43
2023-05-16T09:56:51.557Z,57.40
2023-05-16T09:59:53.191Z,57.09
2023-05-16T10:02:57.586Z,57.04
2023-05-16T10:06:00.542Z,57.35
2023-05-16T10:09:03.347Z,56.28
2023-05-16T10:12:08.616Z,56.51
2023-05-16T10:15:10.463Z,56.53
2023-05-16T10:18:14.286Z,56.62
2023-05-16T10:21:18.005Z,56.27
2023-05-16T10:24:26.408Z,55.47
2023-05-16T10:27:28.343Z,55.52
2023-05-16T10:30:34.962Z,55.57
2023-05-16T10:33:36.945Z,55.83
2023-05-16T10:36:39.728Z,55.49
2023-05-16T10:39:41.523Z,54.67
2023-05-16T10:43:01.101Z,55.32
2023-05-16T10:46:04.961Z,55.50
2023-05-16T10:49:23.703Z,55.83
2023-05-16T10:52:34.235Z,55.54
2023-05-16T10:55:36.541Z,55.37
2023-05-16T10:58:40.989Z,55.61
2023-05-16T11:01:42.688Z,55.36
2023-05-16T11:04:51.839Z,55.39
2023-05-16T11:08:04.687Z,55.56
2023-05-16T11:11:48.698Z,55.76
2023-05-16T11:14:51.809Z,56.03
2023-05-16T11:18:32.527Z,56.08
2023-05-16T11:22:09.177Z,56.18
2023-05-16T11:25:10.922Z,56.47
2023-05-16T11:28:13.798Z,56.53
2023-05-16T11:31:16.311Z,56.75
2023-05-16T11:34:18.410Z,56.77
2023-05-16T11:37:20.722Z,56.90
2023-05-16T11:40:22.420Z,56.98
2023-05-16T11:43:24.138Z,57.38
2023-05-16T11:46:25.826Z,57.51
2023-05-16T11:49:30.329Z,57.52
2023-05-16T11:52:33.019Z,57.73
2023-05-16T11:58:39.699Z,57.87
2023-05-16T12:01:41.399Z,58.04
2023-05-16T12:04:46.972Z,58.29
2023-05-16T12:07:48.485Z,58.40
2023-05-16T12:10:52.410Z,58.71
2023-05-16T12:13:55.317Z,59.12
2023-05-16T12:16:57.238Z,59.08
2023-05-16T12:19:59.260Z,59.21
2023-05-16T12:23:00.784Z,58.95
2023-05-16T12:26:06.770Z,59.29
2023-05-16T12:29:08.630Z,59.20
2023-05-16T12:32:10.221Z,59.04
2023-05-16T12:35:13.134Z,58.99
2023-05-16T12:38:16.661Z,59.06
2023-05-16T12:41:22.964Z,59.18
2023-05-16T12:44:25.100Z,59.13
2023-05-16T12:47:36.742Z,59.02
2023-05-16T12:50:39.591Z,59.25
2023-05-16T12:54:01.512Z,59.14
2023-05-16T12:57:12.671Z,59.05
2023-05-16T13:00:16.047Z,59.09
2023-05-16T13:03:17.731Z,59.00
2023-05-16T13:06:19.364Z,59.30
2023-05-16T13:09:21.107Z,59.43
2023-05-16T13:12:26.883Z,59.65
2023-05-16T13:15:28.920Z,59.49
2023-05-16T13:18:31.610Z,59.62
2023-05-16T13:21:33.318Z,59.56
2023-05-16T13:24:34.964Z,59.36
2023-05-16T13:27:36.826Z,59.65
2023-05-16T13:30:38.322Z,59.89
2023-05-16T13:33:39.887Z,59.71
2023-05-16T13:36:53.126Z,59.75
2023-05-16T13:39:56.181Z,59.93
2023-05-16T13:42:57.783Z,60.15
2023-05-16T13:45:59.389Z,60.11
2023-05-16T13:49:01.977Z,60.21
2023-05-16T13:52:03.776Z,60.41
2023-05-16T13:55:06.206Z,60.34
2023-05-16T13:58:07.704Z,60.65
2023-05-16T14:01:09.327Z,60.06
2023-05-16T14:04:11.053Z,60.51
2023-05-16T14:07:12.715Z,60.47
2023-05-16T14:10:14.325Z,60.37
2023-05-16T14:13:16.270Z,60.51
2023-05-16T14:16:17.993Z,60.44
2023-05-16T14:19:19.842Z,60.36
2023-05-16T14:22:21.507Z,60.52
2023-05-16T14:25:23.373Z,60.28
2023-05-16T14:28:24.983Z,60.10
2023-05-16T14:31:26.744Z,60.03
2023-05-16T14:34:28.428Z,60.24
2023-05-16T14:37:29.924Z,60.15
2023-05-16T14:40:31.530Z,60.06
2023-05-16T14:43:33.106Z,59.98
2023-05-16T14:46:34.710Z,59.81
2023-05-16T14:49:36.733Z,59.77
2023-05-16T14:52:39.938Z,59.01
2023-05-16T14:55:41.559Z,54.15
2023-05-16T14:58:43.133Z,49.67
2023-05-16T15:01:44.773Z,47.27
2023-05-16T15:04:46.448Z,45.08
2023-05-16T15:07:48.457Z,44.96
2023-05-16T15:10:50.035Z,45.07
2023-05-16T15:13:51.569Z,44.93
2023-05-16T15:16:53.474Z,43.74
2023-05-16T15:19:55.681Z,43.76
2023-05-16T15:22:57.342Z,44.22
2023-05-16T15:25:59.135Z,43.74
2023-05-16T15:29:00.710Z,43.92
2023-05-16T15:32:05.774Z,43.78
2023-05-16T15:35:07.805Z,44.10
2023-05-16T15:38:09.405Z,43.81
2023-05-16T15:41:24.014Z,42.83
2023-05-16T15:44:34.274Z,42.13
2023-05-16T15:47:35.866Z,41.88
2023-05-16T15:50:37.459Z,41.17
2023-05-16T15:53:39.553Z,40.96
2023-05-16T15:56:43.176Z,40.13
2023-05-16T15:59:44.683Z,39.58
2023-05-16T16:02:50.440Z,39.65
2023-05-16T16:05:52.633Z,39.92
2023-05-16T16:08:54.215Z,40.27
2023-05-16T16:11:56.690Z,40.84
2023-05-16T16:14:58.236Z,41.88
2023-05-16T16:18:00.514Z,41.85
2023-05-16T16:21:02.348Z,42.15
2023-05-16T16:24:04.331Z,42.44
2023-05-16T16:27:06.114Z,43.03
2023-05-16T16:30:09.555Z,43.94
2023-05-16T16:33:11.137Z,45.62
2023-05-16T16:36:12.874Z,46.26
2023-05-16T16:39:14.454Z,46.65
2023-05-16T16:42:16.633Z,47.42
2023-05-16T16:45:18.964Z,48.00
2023-05-16T16:48:21.581Z,48.56
2023-05-16T16:51:23.229Z,49.15
2023-05-16T16:54:24.827Z,49.73
2023-05-16T16:57:26.699Z,50.17
2023-05-16T17:00:28.492Z,50.60
2023-05-16T17:03:30.056Z,50.80
2023-05-16T17:06:31.764Z,51.30
2023-05-16T17:09:35.788Z,51.71
2023-05-16T17:12:44.361Z,51.96
2023-05-16T17:15:47.142Z,52.16
2023-05-16T17:18:48.771Z,52.14
2023-05-16T17:21:52.011Z,52.37
2023-05-16T17:24:53.769Z,52.66
2023-05-16T17:27:56.254Z,52.49
2023-05-16T17:30:57.904Z,52.51
2023-05-16T17:33:59.412Z,52.66
2023-05-16T17:37:01.379Z,52.63
2023-05-16T17:40:05.751Z,52.84
2023-05-16T17:43:07.361Z,52.75
2023-05-16T17:46:08.946Z,52.83
2023-05-16T17:49:10.614Z,53.05
2023-05-16T17:52:12.185Z,53.04
2023-05-16T17:55:13.860Z,53.01
2023-05-16T17:58:15.457Z,53.19
2023-05-16T18:01:17.224Z,53.29
2023-05-16T18:04:21.419Z,53.21
2023-05-16T18:07:25.210Z,53.30
2023-05-16T18:10:31.573Z,53.39
2023-05-16T18:13:42.435Z,53.31
2023-05-16T18:16:44.517Z,53.11
2023-05-16T18:19:46.063Z,53.17
2023-05-16T18:22:47.968Z,53.22
2023-05-16T18:25:49.506Z,53.16
2023-05-16T18:28:51.019Z,53.22
2023-05-16T18:31:52.871Z,53.12
2023-05-16T18:34:54.668Z,53.16
2023-05-16T18:37:56.316Z,53.18
2023-05-16T18:40:57.967Z,53.19
2023-05-16T18:43:59.977Z,53.40
2023-05-16T18:47:01.640Z,53.12
2023-05-16T18:50:03.452Z,53.30
2023-05-16T18:53:04.993Z,53.49
2023-05-16T18:56:06.614Z,53.27
2023-05-16T18:59:08.560Z,53.17
2023-05-16T19:02:10.066Z,53.34
2023-05-16T19:05:12.027Z,53.09
2023-05-16T19:08:13.713Z,53.18
2023-05-16T19:11:17.093Z,53.21
2023-05-16T19:14:18.774Z,53.14
2023-05-16T19:17:20.434Z,52.93
2023-05-16T19:20:21.996Z,53.32
2023-05-16T19:23:23.518Z,53.14
2023-05-16T19:26:25.263Z,53.13
2023-05-16T19:29:26.917Z,53.28
2023-05-16T19:32:28.596Z,53.11
2023-05-16T19:35:30.482Z,53.50
2023-05-16T19:38:32.164Z,53.17
2023-05-16T19:41:33.797Z,53.16
2023-05-16T19:44:35.483Z,53.34
2023-05-16T19:47:37.023Z,53.38
2023-05-16T19:50:38.803Z,53.38
2023-05-16T19:53:40.853Z,53.43
2023-05-16T19:56:42.414Z,53.55
2023-05-16T19:59:43.958Z,53.69
2023-05-16T20:02:45.579Z,53.69
2023-05-16T20:05:47.276Z,53.85
2023-05-16T20:08:48.842Z,54.01
2023-05-16T20:11:50.384Z,53.92
2023-05-16T20:14:52.066Z,54.01
2023-05-16T20:17:53.741Z,54.30
2023-05-16T20:20:57.416Z,54.22
2023-05-16T20:24:00.298Z,54.18
2023-05-16T20:27:02.024Z,54.31
2023-05-16T20:30:04.849Z,54.16
2023-05-16T20:33:06.450Z,54.40
2023-05-16T20:36:08.081Z,54.39
2023-05-16T20:39:09.626Z,54.47
2023-05-16T20:42:11.193Z,54.48
2023-05-16T20:45:12.778Z,54.51
2023-05-16T20:48:14.454Z,54.43
2023-05-16T20:51:16.065Z,54.70
2023-05-16T20:54:17.682Z,54.63
2023-05-16T20:57:19.196Z,54.43
2023-05-16T21:00:20.905Z,54.48
2023-05-16T21:03:22.454Z,54.70
2023-05-16T21:06:24.277Z,54.78
2023-05-16T21:09:25.849Z,54.95
2023-05-16T21:12:27.515Z,54.58
2023-05-16T21:15:29.354Z,55.06
2023-05-16T21:18:31.228Z,54.88
2023-05-16T21:21:32.929Z,55.35
2023-05-16T21:24:35.590Z,55.13
2023-05-16T21:27:37.331Z,55.19
2023-05-16T21:30:38.870Z,55.28
2023-05-16T21:33:40.466Z,55.42
2023-05-16T21:36:42.026Z,55.26
2023-05-16T21:39:43.559Z,55.36
2023-05-16T21:42:45.997Z,55.37
2023-05-16T21:45:47.491Z,55.58
2023-05-16T21:48:49.142Z,55.61
2023-05-16T21:51:50.938Z,55.66
2023-05-16T21:54:52.474Z,55.80
2023-05-16T21:57:54.061Z,55.89
2023-05-16T22:00:55.738Z,55.84
2023-05-16T22:03:57.602Z,55.86
2023-05-16T22:06:59.321Z,55.75
2023-05-16T22:10:00.936Z,55.72
2023-05-16T22:13:02.523Z,55.98
2023-05-16T22:16:05.447Z,55.97
2023-05-16T22:19:07.621Z,56.06
2023-05-16T22:22:09.902Z,56.05
2023-05-16T22:25:11.470Z,55.75
2023-05-16T22:28:13.000Z,56.06
2023-05-16T22:31:14.553Z,55.93
2023-05-16T22:34:16.124Z,56.03
2023-05-16T22:37:17.657Z,55.84
2023-05-16T22:40:19.252Z,56.17
2023-05-16T22:43:20.920Z,56.11
2023-05-16T22:46:22.437Z,56.14
2023-05-16T22:49:24.089Z,56.18
2023-05-16T22:52:25.689Z,56.29
2023-05-16T22:55:27.450Z,56.03
2023-05-16T22:58:29.086Z,56.00
2023-05-16T23:01:30.750Z,56.23
2023-05-16T23:04:32.533Z,56.35
2023-05-16T23:07:34.173Z,56.26
2023-05-16T23:10:36.523Z,56.38
2023-05-16T23:13:38.617Z,56.40
2023-05-16T23:16:40.149Z,56.70
2023-05-16T23:19:41.792Z,56.74
2023-05-16T23:22:43.325Z,56.37
2023-05-16T23:25:44.973Z,56.38
2023-05-16T23:28:46.505Z,56.53
2023-05-16T23:31:48.126Z,56.55
2023-05-16T23:34:49.742Z,56.67
2023-05-16T23:37:51.351Z,56.67
2023-05-16T23:40:52.981Z,56.73
2023-05-16T23:43:54.591Z,56.75
2023-05-16T23:46:56.119Z,56.87
2023-05-16T23:49:57.686Z,57.01
2023-05-16T23:52:59.208Z,57.14
2023-05-16T23:56:00.874Z,56.58
2023-05-16T23:59:02.436Z,56.73
